Time;durP1;ratioP1;P1;durP2;ratioP2;P2;SDS_P1;SDS_P2;PMS_P1;PMS_P2;Temp;Humidity;BMP_temperature;BMP_pressure;BME280_temperature;BME280_humidity;BME280_pressure;Samples;Min_cycle;Max_cycle;Signal;HPM_P1;HPM_P2
2021/03/17 00:01:40;;;;;;;;;;;18.00;55.10;;;;;;4872983;29;19943;-81
2021/03/17 00:04:08;;;;;;;;;;;18.00;55.10;;;;;;4872308;29;19934;-80
2021/03/17 00:06:34;;;;;;;;;;;18.00;55.10;;;;;;4873306;29;19928;-80
2021/03/17 00:09:00;;;;;;;;;;;18.00;55.10;;;;;;4874224;29;19935;-81
2021/03/17 00:11:26;;;;;;;;;;;18.00;55.10;;;;;;4885682;29;19932;-80
2021/03/17 00:13:59;;;;;;;;;;;18.00;55.10;;;;;;4871810;29;19928;-80
2021/03/17 00:16:25;;;;;;;;;;;18.00;55.10;;;;;;4873695;29;19927;-80
2021/03/17 00:18:54;;;;;;;;;;;17.90;55.10;;;;;;4874934;29;19927;-79
2021/03/17 00:21:21;;;;;;;;;;;17.90;55.10;;;;;;4873267;29;19962;-80
2021/03/17 00:23:47;;;;;;;;;;;17.90;55.10;;;;;;4874786;29;20404;-80
2021/03/17 00:26:14;;;;;;;;;;;17.90;55.10;;;;;;4872947;29;19963;-80
2021/03/17 00:28:40;;;;;;;;;;;17.90;55.10;;;;;;4874039;29;19928;-80
2021/03/17 00:31:06;;;;;;;;;;;17.90;55.20;;;;;;4872048;29;20398;-80
2021/03/17 00:33:33;;;;;;;;;;;17.90;55.70;;;;;;4877951;29;20026;-80
2021/03/17 00:35:59;;;;;;;;;;;17.90;55.20;;;;;;4877034;29;20415;-80
2021/03/17 00:38:25;;;;;;;;;;;17.90;55.10;;;;;;4876405;29;19928;-80
2021/03/17 00:40:51;;;;;;;;;;;17.90;55.10;;;;;;4876645;29;19938;-80
2021/03/17 00:43:18;;;;;;;;;;;17.90;55.10;;;;;;4877309;29;19928;-81
2021/03/17 00:45:44;;;;;;;;;;;17.90;55.10;;;;;;4876624;29;19932;-81
2021/03/17 00:48:10;;;;;;;;;;;17.90;55.20;;;;;;4889578;29;19935;-81
2021/03/17 00:50:37;;;;;;;;;;;17.80;55.10;;;;;;4891997;29;20019;-79
2021/03/17 00:53:03;;;;;;;;;;;17.80;55.10;;;;;;4876317;29;19943;-79
2021/03/17 00:55:30;;;;;;;;;;;17.80;55.10;;;;;;4877116;29;19936;-79
2021/03/17 00:57:56;;;;;;;;;;;17.90;55.10;;;;;;4877027;29;19935;-80
2021/03/17 01:00:22;;;;;;;;;;;17.80;55.10;;;;;;4877800;29;19916;-80
2021/03/17 01:02:49;;;;;;;;;;;17.80;55.10;;;;;;4877772;29;19980;-80
2021/03/17 01:05:16;;;;;;;;;;;17.80;55.10;;;;;;4876866;29;19954;-80
2021/03/17 01:07:42;;;;;;;;;;;17.80;55.20;;;;;;4876469;29;19932;-80
2021/03/17 01:10:10;;;;;;;;;;;17.80;55.20;;;;;;4876782;29;19927;-80
2021/03/17 01:12:36;;;;;;;;;;;17.80;55.20;;;;;;4877544;29;19927;-80
2021/03/17 01:15:03;;;;;;;;;;;17.80;55.30;;;;;;4860531;29;19928;-80
2021/03/17 01:17:29;;;;;;;;;;;17.80;55.20;;;;;;4859758;29;20312;-80
2021/03/17 01:19:56;;;;;;;;;;;17.70;55.10;;;;;;4874469;29;19932;-80
2021/03/17 01:22:22;;;;;;;;;;;17.80;55.20;;;;;;4877119;29;19935;-80
2021/03/17 01:24:49;;;;;;;;;;;17.80;55.20;;;;;;4877361;29;19935;-80
2021/03/17 01:27:15;;;;;;;;;;;17.70;55.20;;;;;;4875933;29;19936;-80
2021/03/17 01:29:41;;;;;;;;;;;17.70;55.20;;;;;;4875682;29;19936;-80
2021/03/17 01:32:08;;;;;;;;;;;17.70;55.20;;;;;;4875515;29;19943;-80
2021/03/17 01:34:35;;;;;;;;;;;17.70;55.10;;;;;;4874847;29;19932;-80
2021/03/17 01:37:01;;;;;;;;;;;17.70;55.20;;;;;;4877005;29;19935;-80
2021/03/17 01:39:27;;;;;;;;;;;17.70;55.10;;;;;;4876385;29;19927;-81
2021/03/17 01:41:53;;;;;;;;;;;17.70;55.20;;;;;;4857614;29;19951;-80
2021/03/17 01:44:20;;;;;;;;;;;17.70;55.10;;;;;;4877891;29;19928;-80
2021/03/17 01:46:46;;;;;;;;;;;17.70;55.10;;;;;;4863940;29;19932;-80
2021/03/17 01:49:13;;;;;;;;;;;17.70;55.10;;;;;;4872141;29;20587;-80
2021/03/17 01:51:39;;;;;;;;;;;17.70;55.10;;;;;;4877017;29;20181;-80
2021/03/17 01:54:09;;;;;;;;;;;17.70;55.10;;;;;;4874907;29;19955;-80
2021/03/17 01:56:35;;;;;;;;;;;17.70;55.10;;;;;;4875591;29;19927;-80
2021/03/17 01:59:02;;;;;;;;;;;17.70;55.10;;;;;;4875341;29;20313;-80
2021/03/17 02:01:28;;;;;;;;;;;17.60;55.00;;;;;;4875927;29;19938;-80
2021/03/17 02:03:55;;;;;;;;;;;17.60;55.00;;;;;;4859034;29;19927;-80
2021/03/17 02:06:21;;;;;;;;;;;17.60;55.00;;;;;;4873903;29;20480;-80
2021/03/17 02:08:48;;;;;;;;;;;17.60;55.00;;;;;;4875182;29;19971;-80
2021/03/17 02:11:15;;;;;;;;;;;17.60;55.00;;;;;;4876312;29;19928;-81
2021/03/17 02:13:59;;;;;;;;;;;17.60;55.00;;;;;;4873296;29;20400;-81
2021/03/17 02:16:29;;;;;;;;;;;17.60;55.00;;;;;;4856560;29;19934;-80
2021/03/17 02:19:04;;;;;;;;;;;17.60;55.00;;;;;;4869765;29;19928;-81
2021/03/17 02:21:33;;;;;;;;;;;17.60;55.00;;;;;;4874982;29;19964;-81
2021/03/17 02:24:08;;;;;;;;;;;17.60;55.00;;;;;;4875253;29;19935;-81
2021/03/17 02:26:40;;;;;;;;;;;17.60;55.10;;;;;;4865834;29;19934;-81
2021/03/17 02:29:25;;;;;;;;;;;17.60;55.00;;;;;;4876247;29;19936;-81
2021/03/17 02:32:01;;;;;;;;;;;17.60;55.00;;;;;;4874495;29;20552;-80
2021/03/17 02:34:28;;;;;;;;;;;17.60;55.00;;;;;;4875269;29;19931;-80
2021/03/17 02:36:59;;;;;;;;;;;17.60;55.00;;;;;;4875940;29;19928;-80
2021/03/17 02:39:34;;;;;;;;;;;17.50;55.00;;;;;;4875642;29;19932;-81
2021/03/17 02:42:03;;;;;;;;;;;17.50;55.00;;;;;;4857557;29;20424;-80
2021/03/17 02:44:29;;;;;;;;;;;17.50;55.00;;;;;;4850049;29;19928;-80
2021/03/17 02:46:57;;;;;;;;;;;17.60;55.00;;;;;;4872802;29;19956;-81
2021/03/17 02:49:24;;;;;;;;;;;17.60;55.00;;;;;;4876009;29;19976;-81
2021/03/17 02:51:55;;;;;;;;;;;17.50;55.00;;;;;;4876313;29;19927;-80
2021/03/17 02:54:22;;;;;;;;;;;17.50;55.00;;;;;;4875040;29;21599;-80
2021/03/17 02:56:52;;;;;;;;;;;17.60;55.00;;;;;;4873127;29;19928;-80
2021/03/17 02:59:19;;;;;;;;;;;17.50;54.90;;;;;;4874909;29;20304;-79
2021/03/17 03:01:48;;;;;;;;;;;17.50;54.90;;;;;;4856977;29;20730;-81
2021/03/17 03:04:15;;;;;;;;;;;17.50;55.00;;;;;;4877470;29;19932;-81
2021/03/17 03:06:46;;;;;;;;;;;17.50;55.20;;;;;;4878940;29;19928;-80
2021/03/17 03:09:13;;;;;;;;;;;17.50;55.20;;;;;;4879347;29;20304;-80
2021/03/17 03:11:39;;;;;;;;;;;17.50;55.20;;;;;;4877366;29;19954;-81
2021/03/17 03:14:06;;;;;;;;;;;17.40;55.10;;;;;;4875738;29;19928;-81
2021/03/17 03:16:34;;;;;;;;;;;17.50;55.20;;;;;;4864053;29;20392;-81
2021/03/17 03:19:05;;;;;;;;;;;17.50;55.10;;;;;;4878888;29;20342;-81
2021/03/17 03:21:31;;;;;;;;;;;17.50;55.10;;;;;;4878727;29;19938;-81
2021/03/17 03:23:58;;;;;;;;;;;17.50;55.80;;;;;;4879582;29;20427;-80
2021/03/17 03:26:24;;;;;;;;;;;17.40;55.00;;;;;;4862947;29;19961;-80
2021/03/17 03:28:51;;;;;;;;;;;17.40;54.90;;;;;;4879527;29;19935;-80
2021/03/17 03:31:18;;;;;;;;;;;17.50;55.00;;;;;;4878206;29;19944;-80
2021/03/17 03:33:45;;;;;;;;;;;17.40;54.90;;;;;;4879781;29;20286;-80
2021/03/17 03:36:11;;;;;;;;;;;17.40;54.80;;;;;;4880491;29;19916;-80
2021/03/17 03:38:38;;;;;;;;;;;17.40;54.80;;;;;;4879731;29;19928;-80
2021/03/17 03:41:04;;;;;;;;;;;17.40;54.80;;;;;;4873882;29;19932;-80
2021/03/17 03:43:31;;;;;;;;;;;17.40;54.80;;;;;;4877230;29;19928;-82
2021/03/17 03:45:57;;;;;;;;;;;17.40;54.80;;;;;;4879476;29;19939;-81
2021/03/17 03:48:24;;;;;;;;;;;17.40;54.80;;;;;;4876798;29;19935;-80
2021/03/17 03:50:53;;;;;;;;;;;17.40;54.80;;;;;;4877184;29;19966;-81
2021/03/17 03:53:19;;;;;;;;;;;17.40;54.90;;;;;;4878970;29;20034;-81
2021/03/17 03:55:48;;;;;;;;;;;17.30;54.80;;;;;;4879271;29;19942;-81
2021/03/17 03:58:22;;;;;;;;;;;17.40;55.00;;;;;;4876892;29;19931;-81
2021/03/17 04:00:48;;;;;;;;;;;17.40;54.90;;;;;;4879621;29;19928;-80
2021/03/17 04:03:16;;;;;;;;;;;17.30;54.90;;;;;;4864540;29;19942;-81
2021/03/17 04:05:44;;;;;;;;;;;17.40;54.90;;;;;;4862680;29;19935;-82
2021/03/17 04:08:18;;;;;;;;;;;17.40;54.90;;;;;;4881733;29;20020;-82
2021/03/17 04:10:52;;;;;;;;;;;17.30;54.80;;;;;;4883265;29;19928;-81
2021/03/17 04:13:18;;;;;;;;;;;17.40;54.80;;;;;;4883069;29;20014;-81
2021/03/17 04:15:49;;;;;;;;;;;17.30;54.80;;;;;;4866883;29;19934;-82
2021/03/17 04:18:16;;;;;;;;;;;17.40;54.90;;;;;;4882330;29;20406;-81
2021/03/17 04:20:45;;;;;;;;;;;17.30;54.80;;;;;;4883313;29;19989;-81
2021/03/17 04:23:14;;;;;;;;;;;17.30;54.80;;;;;;4882779;29;19936;-81
2021/03/17 04:25:43;;;;;;;;;;;17.30;54.80;;;;;;4867065;29;20424;-81
2021/03/17 04:28:13;;;;;;;;;;;17.30;54.80;;;;;;4882999;29;19916;-81
2021/03/17 04:30:39;;;;;;;;;;;17.30;54.70;;;;;;4879885;29;20022;-81
2021/03/17 04:33:08;;;;;;;;;;;17.30;54.70;;;;;;4882510;29;19967;-81
2021/03/17 04:35:35;;;;;;;;;;;17.30;54.70;;;;;;4879880;29;20385;-81
2021/03/17 04:38:03;;;;;;;;;;;17.30;54.80;;;;;;4882677;29;19959;-82
2021/03/17 04:40:29;;;;;;;;;;;17.30;54.70;;;;;;4879436;29;19934;-81
2021/03/17 04:42:56;;;;;;;;;;;17.20;54.70;;;;;;4882383;29;19983;-81
2021/03/17 04:45:23;;;;;;;;;;;17.20;54.70;;;;;;4881815;29;20309;-81
2021/03/17 04:47:53;;;;;;;;;;;17.20;54.70;;;;;;4883965;29;19931;-81
2021/03/17 04:50:24;;;;;;;;;;;17.20;54.70;;;;;;4882571;29;19939;-81
2021/03/17 04:52:50;;;;;;;;;;;17.20;54.70;;;;;;4883136;29;19912;-82
2021/03/17 04:55:19;;;;;;;;;;;17.30;54.80;;;;;;4882380;29;20804;-81
2021/03/17 04:57:46;;;;;;;;;;;17.30;54.80;;;;;;4882260;29;19955;-82
2021/03/17 05:00:24;;;;;;;;;;;17.20;54.70;;;;;;4881275;29;19935;-81
2021/03/17 05:02:53;;;;;;;;;;;17.20;54.70;;;;;;4878550;29;19944;-81
2021/03/17 05:05:19;;;;;;;;;;;17.20;54.70;;;;;;4881028;29;19928;-81
2021/03/17 05:07:47;;;;;;;;;;;17.20;54.70;;;;;;4881106;29;20387;-81
2021/03/17 05:10:14;;;;;;;;;;;17.20;54.80;;;;;;4881596;29;20372;-83
2021/03/17 05:12:40;;;;;;;;;;;17.20;54.80;;;;;;4882190;29;19935;-82
2021/03/17 05:15:07;;;;;;;;;;;17.20;54.70;;;;;;4881986;29;20351;-82
2021/03/17 05:17:42;;;;;;;;;;;17.20;54.60;;;;;;4881517;29;20562;-82
2021/03/17 05:20:15;;;;;;;;;;;17.20;54.70;;;;;;4882101;29;19916;-82
2021/03/17 05:22:42;;;;;;;;;;;17.20;54.70;;;;;;4882144;29;20034;-82
2021/03/17 05:25:09;;;;;;;;;;;17.20;55.30;;;;;;4879756;29;19928;-82
2021/03/17 05:27:36;;;;;;;;;;;17.20;54.60;;;;;;4881632;29;20301;-82
2021/03/17 05:30:06;;;;;;;;;;;17.20;54.60;;;;;;4880925;29;19932;-82
2021/03/17 05:32:33;;;;;;;;;;;17.20;54.50;;;;;;4881914;29;20038;-82
2021/03/17 05:35:01;;;;;;;;;;;17.20;54.50;;;;;;4881893;29;20377;-82
2021/03/17 05:37:27;;;;;;;;;;;17.20;54.50;;;;;;4883941;29;19932;-82
2021/03/17 05:40:00;;;;;;;;;;;17.20;54.60;;;;;;4881684;29;19984;-82
2021/03/17 05:42:27;;;;;;;;;;;17.20;54.60;;;;;;4885902;29;20006;-81
2021/03/17 05:44:54;;;;;;;;;;;17.10;54.50;;;;;;4877777;29;19915;-81
2021/03/17 05:47:21;;;;;;;;;;;17.10;54.50;;;;;;4884695;29;20480;-80
2021/03/17 05:49:48;;;;;;;;;;;17.10;54.50;;;;;;4878411;29;19927;-78
2021/03/17 05:52:15;;;;;;;;;;;17.10;54.60;;;;;;4864734;29;20389;-79
2021/03/17 05:54:42;;;;;;;;;;;17.20;54.60;;;;;;4874370;29;20638;-81
2021/03/17 05:57:09;;;;;;;;;;;17.10;54.80;;;;;;4880674;29;19916;-83
2021/03/17 05:59:35;;;;;;;;;;;17.10;54.90;;;;;;4878101;29;19927;-82
2021/03/17 06:02:02;;;;;;;;;;;17.20;55.60;;;;;;4884985;29;20357;-80
2021/03/17 06:04:29;;;;;;;;;;;17.10;54.80;;;;;;4878030;29;19927;-81
2021/03/17 06:06:57;;;;;;;;;;;17.10;54.80;;;;;;4876683;29;19928;-82
2021/03/17 06:09:24;;;;;;;;;;;17.10;54.80;;;;;;4879865;29;19947;-81
2021/03/17 06:11:51;;;;;;;;;;;17.10;54.80;;;;;;4881143;29;19928;-80
2021/03/17 06:14:21;;;;;;;;;;;17.10;54.80;;;;;;4877800;29;19931;-81
2021/03/17 06:16:54;;;;;;;;;;;17.10;54.80;;;;;;4881667;29;19935;-80
2021/03/17 06:19:22;;;;;;;;;;;17.10;54.80;;;;;;4880191;29;19936;-79
2021/03/17 06:21:49;;;;;;;;;;;17.10;54.70;;;;;;4881516;29;19927;-81
2021/03/17 06:24:16;;;;;;;;;;;17.10;54.90;;;;;;4878949;29;20320;-82
2021/03/17 06:26:43;;;;;;;;;;;17.10;54.90;;;;;;4880621;29;19942;-77
2021/03/17 06:29:10;;;;;;;;;;;17.10;55.00;;;;;;4878656;29;19928;-80
2021/03/17 06:31:37;;;;;;;;;;;17.10;55.00;;;;;;4880878;29;19928;-80
2021/03/17 06:34:03;;;;;;;;;;;17.10;55.00;;;;;;4880130;29;19932;-81
2021/03/17 06:36:29;;;;;;;;;;;17.10;55.00;;;;;;4882350;29;20026;-80
2021/03/17 06:39:06;;;;;;;;;;;17.10;55.00;;;;;;4879936;29;19979;-80
2021/03/17 06:41:43;;;;;;;;;;;17.10;54.90;;;;;;4864632;29;19979;-81
2021/03/17 06:44:09;;;;;;;;;;;17.10;54.80;;;;;;4881095;29;20018;-80
2021/03/17 06:46:36;;;;;;;;;;;17.10;54.80;;;;;;4881375;29;19932;-82
2021/03/17 06:49:04;;;;;;;;;;;17.10;54.80;;;;;;4876760;29;19932;-79
2021/03/17 06:51:31;;;;;;;;;;;17.10;55.00;;;;;;4877300;29;19928;-80
2021/03/17 06:54:03;;;;;;;;;;;17.20;55.40;;;;;;4882689;29;19931;-81
2021/03/17 06:56:32;;;;;;;;;;;17.20;55.30;;;;;;4882833;29;19932;-80
2021/03/17 06:59:00;;;;;;;;;;;17.20;55.30;;;;;;4864987;29;20027;-79
2021/03/17 07:01:37;;;;;;;;;;;17.20;55.30;;;;;;4877372;29;19934;-79
2021/03/17 07:04:08;;;;;;;;;;;17.10;55.10;;;;;;4879055;29;20416;-80
2021/03/17 07:06:36;;;;;;;;;;;17.10;55.00;;;;;;4879834;29;19947;-78
2021/03/17 07:09:16;;;;;;;;;;;17.10;55.00;;;;;;4878253;29;19962;-78
2021/03/17 07:11:43;;;;;;;;;;;17.10;55.00;;;;;;4880315;29;19928;-80
2021/03/17 07:14:09;;;;;;;;;;;17.10;55.60;;;;;;4880280;29;19928;-85
2021/03/17 07:16:46;;;;;;;;;;;17.20;56.30;;;;;;4856769;29;20002;-90
2021/03/17 07:19:31;;;;;;;;;;;17.50;57.00;;;;;;4864806;29;19932;-94
2021/03/17 07:22:04;;;;;;;;;;;18.00;54.30;;;;;;4877828;29;19931;-82
2021/03/17 07:24:31;;;;;;;;;;;18.70;54.30;;;;;;4883507;29;19932;-95
2021/03/17 07:27:19;;;;;;;;;;;19.50;52.90;;;;;;4862840;29;20595;-86
2021/03/17 07:30:06;;;;;;;;;;;20.00;51.30;;;;;;4866749;29;19931;-89
2021/03/17 07:32:58;;;;;;;;;;;20.50;50.30;;;;;;4860519;29;19977;-89
2021/03/17 07:35:24;;;;;;;;;;;20.70;49.80;;;;;;4873582;29;19940;-86
2021/03/17 07:38:02;;;;;;;;;;;21.00;49.70;;;;;;4868197;29;20035;-83
2021/03/17 07:40:29;;;;;;;;;;;21.20;49.40;;;;;;4864141;29;20258;-84
2021/03/17 07:42:58;;;;;;;;;;;21.40;49.10;;;;;;4870180;29;20394;-84
2021/03/17 07:45:26;;;;;;;;;;;21.60;48.50;;;;;;4865335;29;19928;-88
2021/03/17 07:47:52;;;;;;;;;;;21.70;48.30;;;;;;4867988;29;19936;-85
2021/03/17 07:50:19;;;;;;;;;;;21.80;47.80;;;;;;4871485;29;20329;-86
2021/03/17 07:52:45;;;;;;;;;;;22.00;47.30;;;;;;4862434;29;20486;-83
2021/03/17 07:55:12;;;;;;;;;;;22.00;46.70;;;;;;4874162;29;20277;-86
2021/03/17 07:57:39;;;;;;;;;;;21.50;46.90;;;;;;4878739;29;19928;-83
2021/03/17 08:00:06;;;;;;;;;;;21.20;46.90;;;;;;4875588;29;19936;-88
2021/03/17 08:02:34;;;;;;;;;;;21.30;47.70;;;;;;4871365;29;19976;-88
2021/03/17 08:05:00;;;;;;;;;;;21.90;47.60;;;;;;4864947;29;20098;-89
2021/03/17 08:07:27;;;;;;;;;;;22.40;47.00;;;;;;4866711;29;19940;-91
2021/03/17 08:09:53;;;;;;;;;;;22.70;46.50;;;;;;4868470;29;19935;-93
2021/03/17 08:12:20;;;;;;;;;;;23.00;46.30;;;;;;4870274;29;19931;-87
2021/03/17 08:14:47;;;;;;;;;;;23.10;46.10;;;;;;4882396;29;20384;-86
2021/03/17 08:17:29;;;;;;;;;;;23.50;45.70;;;;;;4882610;29;19928;-89
2021/03/17 08:20:22;;;;;;;;;;;23.60;45.40;;;;;;4882048;29;20369;-87
2021/03/17 08:22:49;;;;;;;;;;;23.80;45.10;;;;;;4872188;29;19966;-87
2021/03/17 08:25:51;;;;;;;;;;;23.80;44.90;;;;;;4883094;29;19943;-83
2021/03/17 08:28:17;;;;;;;;;;;24.00;44.70;;;;;;4834299;29;19936;-87
2021/03/17 08:30:44;;;;;;;;;;;24.20;44.60;;;;;;4863641;29;19932;-85
2021/03/17 08:33:10;;;;;;;;;;;24.30;44.40;;;;;;4867962;29;19971;-85
2021/03/17 08:35:56;;;;;;;;;;;24.40;44.40;;;;;;4864653;29;19935;-89
2021/03/17 08:38:22;;;;;;;;;;;24.40;43.90;;;;;;4882829;29;19928;-87
2021/03/17 08:40:49;;;;;;;;;;;24.50;43.90;;;;;;4871303;29;19943;-86
2021/03/17 08:43:27;;;;;;;;;;;24.70;44.40;;;;;;4861546;29;19988;-84
2021/03/17 08:46:06;;;;;;;;;;;24.80;43.40;;;;;;4869791;29;20393;-83
2021/03/17 08:48:51;;;;;;;;;;;24.90;43.40;;;;;;4869903;29;20030;-88
2021/03/17 08:51:18;;;;;;;;;;;25.00;43.20;;;;;;4869891;29;19936;-83
2021/03/17 08:53:47;;;;;;;;;;;25.10;43.00;;;;;;4870735;29;19928;-85
2021/03/17 08:56:32;;;;;;;;;;;25.30;42.90;;;;;;4879887;29;19928;-93
2021/03/17 08:59:14;;;;;;;;;;;25.40;43.00;;;;;;4892004;29;19931;-84
2021/03/17 09:01:41;;;;;;;;;;;25.50;42.80;;;;;;4877744;29;19932;-83
2021/03/17 09:04:07;;;;;;;;;;;25.60;42.90;;;;;;4881709;29;19931;-89
2021/03/17 09:06:33;;;;;;;;;;;25.60;42.70;;;;;;4888598;29;19963;-85
2021/03/17 09:09:00;;;;;;;;;;;25.70;42.80;;;;;;4871795;29;19936;-85
2021/03/17 09:11:29;;;;;;;;;;;25.70;43.00;;;;;;4880322;29;19932;-88
2021/03/17 09:14:03;;;;;;;;;;;25.70;42.60;;;;;;4885591;29;20444;-89
2021/03/17 09:16:31;;;;;;;;;;;25.70;42.60;;;;;;4880880;29;19936;-87
2021/03/17 09:19:04;;;;;;;;;;;25.80;42.70;;;;;;4870243;29;19932;-84
2021/03/17 09:21:34;;;;;;;;;;;25.90;42.20;;;;;;4890612;29;20015;-88
2021/03/17 09:24:01;;;;;;;;;;;25.50;38.90;;;;;;4899467;29;19936;-84
2021/03/17 09:26:31;;;;;;;;;;;24.00;39.50;;;;;;4892095;29;19939;-84
2021/03/17 09:29:06;;;;;;;;;;;23.10;41.20;;;;;;4871165;29;20022;-83
2021/03/17 09:31:36;;;;;;;;;;;22.50;41.90;;;;;;4877007;29;20412;-84
2021/03/17 09:34:03;;;;;;;;;;;21.90;42.00;;;;;;4875944;29;19928;-84
2021/03/17 09:36:29;;;;;;;;;;;21.50;41.40;;;;;;4874712;29;19972;-84
2021/03/17 09:38:56;;;;;;;;;;;21.10;41.00;;;;;;4877190;29;19980;-86
2021/03/17 09:41:27;;;;;;;;;;;20.80;41.30;;;;;;4893522;29;20027;-91
2021/03/17 09:44:01;;;;;;;;;;;20.90;45.00;;;;;;4879010;29;20085;-89
2021/03/17 09:46:31;;;;;;;;;;;21.30;46.10;;;;;;4868076;29;19942;-89
2021/03/17 09:49:04;;;;;;;;;;;21.60;46.50;;;;;;4875918;29;20385;-90
2021/03/17 09:51:32;;;;;;;;;;;21.70;46.20;;;;;;4869940;29;19935;-87
2021/03/17 09:54:02;;;;;;;;;;;21.90;46.90;;;;;;4874317;29;20574;-85
2021/03/17 09:56:38;;;;;;;;;;;22.00;47.40;;;;;;4868083;29;19936;-86
2021/03/17 09:59:12;;;;;;;;;;;22.00;47.70;;;;;;4876206;29;19932;-87
2021/03/17 10:01:52;;;;;;;;;;;22.10;47.30;;;;;;4877264;29;20404;-87
2021/03/17 10:04:20;;;;;;;;;;;22.10;46.90;;;;;;4876270;29;19936;-84
2021/03/17 10:06:46;;;;;;;;;;;22.10;48.10;;;;;;4893630;29;19924;-84
2021/03/17 10:09:12;;;;;;;;;;;22.10;47.50;;;;;;4872698;29;19929;-81
2021/03/17 10:11:39;;;;;;;;;;;22.10;47.50;;;;;;4870075;29;19932;-83
2021/03/17 10:14:15;;;;;;;;;;;22.10;47.70;;;;;;4881880;29;19932;-85
2021/03/17 10:16:42;;;;;;;;;;;22.10;46.90;;;;;;4870851;29;20039;-86
2021/03/17 10:19:15;;;;;;;;;;;22.10;47.90;;;;;;4884568;29;19979;-86
2021/03/17 10:21:48;;;;;;;;;;;22.10;48.00;;;;;;4884700;29;20339;-86
2021/03/17 10:24:14;;;;;;;;;;;22.10;47.30;;;;;;4866234;29;20490;-90
2021/03/17 10:26:40;;;;;;;;;;;22.10;47.50;;;;;;4864118;29;20471;-85
2021/03/17 10:29:08;;;;;;;;;;;22.10;47.80;;;;;;4881846;29;20002;-85
2021/03/17 10:31:35;;;;;;;;;;;22.10;47.60;;;;;;4878869;29;20385;-89
2021/03/17 10:34:12;;;;;;;;;;;22.10;48.00;;;;;;4858235;29;19991;-87
2021/03/17 10:36:39;;;;;;;;;;;22.10;48.00;;;;;;4870039;29;19934;-89
2021/03/17 10:39:06;;;;;;;;;;;22.20;48.00;;;;;;4884021;29;20042;-90
2021/03/17 10:41:45;;;;;;;;;;;22.10;48.20;;;;;;4866307;29;19966;-87
2021/03/17 10:44:16;;;;;;;;;;;22.10;48.80;;;;;;4874289;29;20467;-87
2021/03/17 10:46:56;;;;;;;;;;;22.20;48.20;;;;;;4865127;29;20385;-86
2021/03/17 10:49:23;;;;;;;;;;;22.20;48.30;;;;;;4889058;29;20349;-85
2021/03/17 10:52:05;;;;;;;;;;;22.20;48.60;;;;;;4890059;29;19945;-85
2021/03/17 10:54:39;;;;;;;;;;;22.20;48.20;;;;;;4863431;29;20014;-90
2021/03/17 10:57:17;;;;;;;;;;;22.20;48.40;;;;;;4877112;29;19971;-85
2021/03/17 10:59:43;;;;;;;;;;;22.20;48.20;;;;;;4871988;29;19936;-85
2021/03/17 11:02:15;;;;;;;;;;;22.20;48.60;;;;;;4872986;29;19928;-86
2021/03/17 11:05:01;;;;;;;;;;;22.20;48.20;;;;;;4861433;29;19987;-86
2021/03/17 11:07:27;;;;;;;;;;;22.20;48.50;;;;;;4875287;29;19932;-87
2021/03/17 11:09:54;;;;;;;;;;;22.20;48.50;;;;;;4860253;29;19928;-83
2021/03/17 11:12:20;;;;;;;;;;;22.20;48.30;;;;;;4873055;29;19943;-85
2021/03/17 11:14:46;;;;;;;;;;;22.20;48.20;;;;;;4886639;29;20300;-87
2021/03/17 11:17:12;;;;;;;;;;;22.10;47.50;;;;;;4893740;29;19932;-86
2021/03/17 11:19:39;;;;;;;;;;;21.60;46.30;;;;;;4879247;29;19964;-86
2021/03/17 11:22:05;;;;;;;;;;;21.50;46.70;;;;;;4880824;29;19931;-84
2021/03/17 11:24:32;;;;;;;;;;;21.30;46.90;;;;;;4883156;29;20301;-86
2021/03/17 11:26:58;;;;;;;;;;;21.30;47.50;;;;;;4879454;29;20515;-87
2021/03/17 11:29:27;;;;;;;;;;;21.10;47.30;;;;;;4877461;29;19963;-86
2021/03/17 11:31:55;;;;;;;;;;;21.00;47.60;;;;;;4878790;29;20682;-88
2021/03/17 11:34:21;;;;;;;;;;;21.00;47.70;;;;;;4877358;29;20340;-88
2021/03/17 11:36:49;;;;;;;;;;;20.90;47.90;;;;;;4882690;29;20377;-87
2021/03/17 11:39:16;;;;;;;;;;;20.80;47.80;;;;;;4879391;29;19978;-86
2021/03/17 11:41:45;;;;;;;;;;;20.80;48.00;;;;;;4879146;29;19936;-87
2021/03/17 11:44:21;;;;;;;;;;;20.70;48.20;;;;;;4877553;29;19939;-86
2021/03/17 11:46:49;;;;;;;;;;;20.70;48.10;;;;;;4877701;29;20325;-87
2021/03/17 11:49:16;;;;;;;;;;;20.50;48.10;;;;;;4878191;29;20260;-86
2021/03/17 11:51:46;;;;;;;;;;;20.50;48.30;;;;;;4875934;29;20401;-84
2021/03/17 11:54:22;;;;;;;;;;;20.50;48.50;;;;;;4891225;29;19928;-90
2021/03/17 11:56:48;;;;;;;;;;;20.40;48.30;;;;;;4878814;29;20389;-87
2021/03/17 11:59:40;;;;;;;;;;;20.40;48.30;;;;;;4877235;29;20423;-89
2021/03/17 12:02:06;;;;;;;;;;;20.30;48.50;;;;;;4892744;29;20385;-92
2021/03/17 12:04:33;;;;;;;;;;;20.30;48.80;;;;;;4892284;29;20031;-86
2021/03/17 12:07:00;;;;;;;;;;;20.30;48.90;;;;;;4880493;29;20536;-88
2021/03/17 12:09:26;;;;;;;;;;;20.20;49.20;;;;;;4876810;29;19936;-86
2021/03/17 12:11:52;;;;;;;;;;;20.20;49.40;;;;;;4876436;29;19992;-84
2021/03/17 12:14:19;;;;;;;;;;;20.10;49.40;;;;;;4878505;29;19967;-84
2021/03/17 12:16:45;;;;;;;;;;;20.10;49.30;;;;;;4876205;29;19975;-87
2021/03/17 12:19:12;;;;;;;;;;;20.10;49.10;;;;;;4865469;29;20470;-85
2021/03/17 12:21:39;;;;;;;;;;;20.00;49.30;;;;;;4862583;29;19936;-86
2021/03/17 12:24:05;;;;;;;;;;;20.00;49.20;;;;;;4860876;29;19974;-85
2021/03/17 12:26:32;;;;;;;;;;;19.90;49.40;;;;;;4873467;29;19932;-86
2021/03/17 12:28:59;;;;;;;;;;;19.80;49.50;;;;;;4866477;29;19932;-86
2021/03/17 12:31:25;;;;;;;;;;;19.80;49.80;;;;;;4882137;29;19963;-86
2021/03/17 12:33:52;;;;;;;;;;;19.80;49.80;;;;;;4879987;29;19962;-89
2021/03/17 12:36:18;;;;;;;;;;;19.80;49.80;;;;;;4867604;29;20010;-87
2021/03/17 12:38:44;;;;;;;;;;;19.70;50.00;;;;;;4863561;29;19928;-85
2021/03/17 12:41:11;;;;;;;;;;;19.70;50.10;;;;;;4879058;29;20404;-86
2021/03/17 12:43:37;;;;;;;;;;;19.70;50.10;;;;;;4864863;29;20392;-86
2021/03/17 12:46:03;;;;;;;;;;;19.70;50.10;;;;;;4869679;29;19927;-86
2021/03/17 12:48:29;;;;;;;;;;;19.70;50.10;;;;;;4869524;29;19967;-86
2021/03/17 12:50:56;;;;;;;;;;;19.60;50.10;;;;;;4868007;29;19932;-89
2021/03/17 12:53:33;;;;;;;;;;;19.60;49.80;;;;;;4869360;29;19928;-90
2021/03/17 12:56:00;;;;;;;;;;;19.50;49.90;;;;;;4863269;29;19967;-88
2021/03/17 12:58:26;;;;;;;;;;;19.50;50.30;;;;;;4864856;29;19938;-87
2021/03/17 13:00:58;;;;;;;;;;;19.50;52.50;;;;;;4848407;29;20004;-84
2021/03/17 13:03:24;;;;;;;;;;;19.40;52.40;;;;;;4860921;29;20001;-87
2021/03/17 13:05:50;;;;;;;;;;;19.30;50.30;;;;;;4884863;29;19935;-91
2021/03/17 13:08:19;;;;;;;;;;;19.30;48.90;;;;;;4867727;29;19934;-91
2021/03/17 13:10:45;;;;;;;;;;;19.20;48.90;;;;;;4882577;29;19980;-90
2021/03/17 13:13:12;;;;;;;;;;;19.20;47.60;;;;;;4865002;29;20019;-91
2021/03/17 13:15:38;;;;;;;;;;;19.10;46.30;;;;;;4868234;29;20089;-91
2021/03/17 13:18:09;;;;;;;;;;;19.10;46.90;;;;;;4864022;29;20027;-86
2021/03/17 13:20:35;;;;;;;;;;;19.10;46.60;;;;;;4861878;29;19931;-84
2021/03/17 13:23:03;;;;;;;;;;;19.10;45.80;;;;;;4863650;29;19919;-87
2021/03/17 13:25:29;;;;;;;;;;;19.00;45.20;;;;;;4853336;29;19932;-86
2021/03/17 13:27:57;;;;;;;;;;;19.00;45.10;;;;;;4862114;29;20515;-87
2021/03/17 13:30:23;;;;;;;;;;;18.90;44.70;;;;;;4869735;29;19989;-94
2021/03/17 13:32:51;;;;;;;;;;;18.70;44.80;;;;;;4863272;29;19983;-93
2021/03/17 13:35:21;;;;;;;;;;;18.50;45.00;;;;;;4861939;29;19932;-84
2021/03/17 13:37:47;;;;;;;;;;;18.40;44.30;;;;;;4881450;29;19932;-90
2021/03/17 13:40:18;;;;;;;;;;;18.30;44.40;;;;;;4869406;29;19932;-94
2021/03/17 13:42:44;;;;;;;;;;;18.30;44.80;;;;;;4884312;29;20357;-89
2021/03/17 13:45:12;;;;;;;;;;;18.30;44.90;;;;;;4885759;29;19916;-92
2021/03/17 13:47:38;;;;;;;;;;;18.30;44.30;;;;;;4868254;29;19935;-91
2021/03/17 13:50:10;;;;;;;;;;;18.30;44.70;;;;;;4867100;29;19931;-88
2021/03/17 13:52:36;;;;;;;;;;;18.40;45.10;;;;;;4880994;29;20506;-90
2021/03/17 13:55:03;;;;;;;;;;;18.50;45.10;;;;;;4867199;29;19928;-89
2021/03/17 13:57:30;;;;;;;;;;;18.40;44.10;;;;;;4862479;29;20026;-85
2021/03/17 13:59:57;;;;;;;;;;;18.20;44.40;;;;;;4864252;29;19935;-91
2021/03/17 14:02:24;;;;;;;;;;;18.30;44.60;;;;;;4865525;29;20285;-89
2021/03/17 14:04:51;;;;;;;;;;;18.30;45.00;;;;;;4860993;29;20330;-91
2021/03/17 14:07:18;;;;;;;;;;;18.40;44.50;;;;;;4863488;29;19915;-87
2021/03/17 14:09:45;;;;;;;;;;;18.40;44.30;;;;;;4874174;29;19928;-90
2021/03/17 14:12:12;;;;;;;;;;;18.40;44.90;;;;;;4866010;29;20369;-89
2021/03/17 14:14:38;;;;;;;;;;;18.50;45.10;;;;;;4863131;29;19938;-87
2021/03/17 14:17:05;;;;;;;;;;;18.50;44.40;;;;;;4870756;29;19928;-91
2021/03/17 14:19:32;;;;;;;;;;;18.40;44.50;;;;;;4867245;29;19938;-87
2021/03/17 14:21:59;;;;;;;;;;;18.40;44.30;;;;;;4868129;29;20035;-87
2021/03/17 14:24:31;;;;;;;;;;;18.20;44.50;;;;;;4875046;29;19935;-84
2021/03/17 14:26:58;;;;;;;;;;;18.20;44.70;;;;;;4879917;29;19927;-88